sensor_id;sensor_type;location;lat;lon;timestamp;P1;durP1;ratioP1;P2;durP2;ratioP2
41039;SDS011;48586;50.122;18.972;2022-08-18T00:01:19;26.88;;;19.05;;
41039;SDS011;48586;50.122;18.972;2022-08-18T00:04:23;31.80;;;19.50;;
41039;SDS011;48586;50.122;18.972;2022-08-18T00:07:26;29.15;;;19.67;;
41039;SDS011;48586;50.122;18.972;2022-08-18T00:10:32;32.80;;;20.20;;
41039;SDS011;48586;50.122;18.972;2022-08-18T00:13:34;33.47;;;19.92;;
41039;SDS011;48586;50.122;18.972;2022-08-18T00:16:38;26.30;;;19.73;;
41039;SDS011;48586;50.122;18.972;2022-08-18T00:19:40;28.85;;;19.70;;
41039;SDS011;48586;50.122;18.972;2022-08-18T00:22:42;30.67;;;18.95;;
41039;SDS011;48586;50.122;18.972;2022-08-18T00:25:44;27.33;;;19.50;;
41039;SDS011;48586;50.122;18.972;2022-08-18T00:28:49;34.80;;;22.05;;
41039;SDS011;48586;50.122;18.972;2022-08-18T00:31:53;31.08;;;21.92;;
41039;SDS011;48586;50.122;18.972;2022-08-18T00:34:55;35.03;;;23.17;;
41039;SDS011;48586;50.122;18.972;2022-08-18T00:37:58;37.65;;;24.38;;
41039;SDS011;48586;50.122;18.972;2022-08-18T00:41:02;41.27;;;22.97;;
41039;SDS011;48586;50.122;18.972;2022-08-18T00:44:04;35.33;;;23.70;;
41039;SDS011;48586;50.122;18.972;2022-08-18T00:47:07;36.47;;;23.27;;
41039;SDS011;48586;50.122;18.972;2022-08-18T00:50:13;32.70;;;22.88;;
41039;SDS011;48586;50.122;18.972;2022-08-18T00:53:20;34.00;;;24.55;;
41039;SDS011;48586;50.122;18.972;2022-08-18T00:56:27;36.22;;;24.00;;
41039;SDS011;48586;50.122;18.972;2022-08-18T00:59:35;39.88;;;23.80;;
41039;SDS011;48586;50.122;18.972;2022-08-18T01:02:45;39.42;;;24.65;;
41039;SDS011;48586;50.122;18.972;2022-08-18T01:05:53;35.58;;;22.95;;
41039;SDS011;48586;50.122;18.972;2022-08-18T01:08:58;32.67;;;21.13;;
41039;SDS011;48586;50.122;18.972;2022-08-18T01:12:01;28.30;;;21.75;;
41039;SDS011;48586;50.122;18.972;2022-08-18T01:15:03;31.88;;;21.95;;
41039;SDS011;48586;50.122;18.972;2022-08-18T01:18:08;30.30;;;20.42;;
41039;SDS011;48586;50.122;18.972;2022-08-18T01:21:30;25.35;;;20.58;;
41039;SDS011;48586;50.122;18.972;2022-08-18T01:24:53;32.17;;;21.25;;
41039;SDS011;48586;50.122;18.972;2022-08-18T01:28:27;33.88;;;22.77;;
41039;SDS011;48586;50.122;18.972;2022-08-18T01:31:33;33.60;;;21.88;;
41039;SDS011;48586;50.122;18.972;2022-08-18T01:34:37;29.30;;;21.10;;
41039;SDS011;48586;50.122;18.972;2022-08-18T01:37:39;35.33;;;23.42;;
41039;SDS011;48586;50.122;18.972;2022-08-18T01:40:44;37.53;;;24.45;;
41039;SDS011;48586;50.122;18.972;2022-08-18T01:43:47;34.53;;;23.50;;
41039;SDS011;48586;50.122;18.972;2022-08-18T01:46:50;34.85;;;23.08;;
41039;SDS011;48586;50.122;18.972;2022-08-18T01:49:52;29.08;;;22.00;;
41039;SDS011;48586;50.122;18.972;2022-08-18T01:52:56;32.47;;;22.67;;
41039;SDS011;48586;50.122;18.972;2022-08-18T01:56:00;35.28;;;23.90;;
41039;SDS011;48586;50.122;18.972;2022-08-18T01:59:05;40.70;;;24.25;;
41039;SDS011;48586;50.122;18.972;2022-08-18T02:05:15;35.97;;;23.08;;
41039;SDS011;48586;50.122;18.972;2022-08-18T02:08:25;30.33;;;22.60;;
41039;SDS011;48586;50.122;18.972;2022-08-18T02:11:29;32.58;;;22.45;;
41039;SDS011;48586;50.122;18.972;2022-08-18T02:14:31;33.67;;;21.92;;
41039;SDS011;48586;50.122;18.972;2022-08-18T02:17:35;29.83;;;22.77;;
41039;SDS011;48586;50.122;18.972;2022-08-18T02:20:38;32.42;;;22.30;;
41039;SDS011;48586;50.122;18.972;2022-08-18T02:23:41;34.05;;;22.83;;
41039;SDS011;48586;50.122;18.972;2022-08-18T02:26:46;28.85;;;21.88;;
41039;SDS011;48586;50.122;18.972;2022-08-18T02:29:48;33.47;;;24.20;;
41039;SDS011;48586;50.122;18.972;2022-08-18T02:32:50;31.02;;;22.88;;
41039;SDS011;48586;50.122;18.972;2022-08-18T02:35:52;30.20;;;21.25;;
41039;SDS011;48586;50.122;18.972;2022-08-18T02:38:55;30.42;;;21.92;;
41039;SDS011;48586;50.122;18.972;2022-08-18T02:41:59;34.72;;;22.02;;
41039;SDS011;48586;50.122;18.972;2022-08-18T02:45:03;31.88;;;21.05;;
41039;SDS011;48586;50.122;18.972;2022-08-18T02:51:10;28.77;;;22.38;;
41039;SDS011;48586;50.122;18.972;2022-08-18T02:54:13;30.83;;;21.67;;
41039;SDS011;48586;50.122;18.972;2022-08-18T02:57:17;27.00;;;21.13;;
41039;SDS011;48586;50.122;18.972;2022-08-18T03:00:23;29.35;;;21.23;;
41039;SDS011;48586;50.122;18.972;2022-08-18T03:03:25;30.83;;;20.88;;
41039;SDS011;48586;50.122;18.972;2022-08-18T03:06:27;31.20;;;21.92;;
41039;SDS011;48586;50.122;18.972;2022-08-18T03:09:30;34.92;;;23.13;;
41039;SDS011;48586;50.122;18.972;2022-08-18T03:12:35;31.90;;;21.27;;
41039;SDS011;48586;50.122;18.972;2022-08-18T03:15:37;33.35;;;22.20;;
41039;SDS011;48586;50.122;18.972;2022-08-18T03:18:39;32.63;;;22.30;;
41039;SDS011;48586;50.122;18.972;2022-08-18T03:21:42;29.02;;;21.65;;
41039;SDS011;48586;50.122;18.972;2022-08-18T03:24:45;31.55;;;21.70;;
41039;SDS011;48586;50.122;18.972;2022-08-18T03:27:48;34.72;;;23.10;;
41039;SDS011;48586;50.122;18.972;2022-08-18T03:30:49;39.95;;;26.30;;
41039;SDS011;48586;50.122;18.972;2022-08-18T03:33:51;51.47;;;32.20;;
41039;SDS011;48586;50.122;18.972;2022-08-18T03:36:54;53.60;;;32.22;;
41039;SDS011;48586;50.122;18.972;2022-08-18T03:39:56;41.40;;;28.00;;
41039;SDS011;48586;50.122;18.972;2022-08-18T03:43:00;46.83;;;27.10;;
41039;SDS011;48586;50.122;18.972;2022-08-18T03:46:07;39.40;;;26.42;;
41039;SDS011;48586;50.122;18.972;2022-08-18T03:49:10;36.88;;;24.85;;
41039;SDS011;48586;50.122;18.972;2022-08-18T03:52:12;35.78;;;24.58;;
41039;SDS011;48586;50.122;18.972;2022-08-18T03:55:14;35.38;;;23.52;;
41039;SDS011;48586;50.122;18.972;2022-08-18T03:58:18;41.80;;;25.98;;
41039;SDS011;48586;50.122;18.972;2022-08-18T04:01:20;41.35;;;25.98;;
41039;SDS011;48586;50.122;18.972;2022-08-18T04:04:25;42.85;;;28.13;;
41039;SDS011;48586;50.122;18.972;2022-08-18T04:07:28;36.97;;;27.13;;
41039;SDS011;48586;50.122;18.972;2022-08-18T04:10:31;38.83;;;25.80;;
41039;SDS011;48586;50.122;18.972;2022-08-18T04:13:36;36.03;;;25.60;;
41039;SDS011;48586;50.122;18.972;2022-08-18T04:16:39;39.28;;;25.42;;
41039;SDS011;48586;50.122;18.972;2022-08-18T04:19:41;40.40;;;26.48;;
41039;SDS011;48586;50.122;18.972;2022-08-18T04:22:44;38.55;;;25.90;;
41039;SDS011;48586;50.122;18.972;2022-08-18T04:25:53;41.00;;;26.45;;
41039;SDS011;48586;50.122;18.972;2022-08-18T04:28:58;36.08;;;25.55;;
41039;SDS011;48586;50.122;18.972;2022-08-18T04:32:01;34.10;;;25.10;;
41039;SDS011;48586;50.122;18.972;2022-08-18T04:35:04;34.35;;;24.23;;
41039;SDS011;48586;50.122;18.972;2022-08-18T04:38:07;37.13;;;24.95;;
41039;SDS011;48586;50.122;18.972;2022-08-18T04:41:09;35.17;;;24.58;;
41039;SDS011;48586;50.122;18.972;2022-08-18T04:44:14;31.83;;;23.52;;
41039;SDS011;48586;50.122;18.972;2022-08-18T04:47:17;36.00;;;23.75;;
41039;SDS011;48586;50.122;18.972;2022-08-18T04:50:19;32.75;;;23.95;;
41039;SDS011;48586;50.122;18.972;2022-08-18T04:53:21;29.17;;;23.65;;
41039;SDS011;48586;50.122;18.972;2022-08-18T04:56:40;33.47;;;24.90;;
41039;SDS011;48586;50.122;18.972;2022-08-18T04:59:46;33.92;;;23.83;;
41039;SDS011;48586;50.122;18.972;2022-08-18T05:02:49;39.15;;;24.33;;
41039;SDS011;48586;50.122;18.972;2022-08-18T05:05:51;35.50;;;26.00;;
41039;SDS011;48586;50.122;18.972;2022-08-18T05:08:54;42.13;;;28.73;;
41039;SDS011;48586;50.122;18.972;2022-08-18T05:11:57;46.65;;;27.65;;
41039;SDS011;48586;50.122;18.972;2022-08-18T05:15:01;42.97;;;27.33;;
41039;SDS011;48586;50.122;18.972;2022-08-18T05:18:02;44.42;;;29.20;;
41039;SDS011;48586;50.122;18.972;2022-08-18T05:21:05;45.65;;;28.45;;
41039;SDS011;48586;50.122;18.972;2022-08-18T05:24:10;43.17;;;27.50;;
41039;SDS011;48586;50.122;18.972;2022-08-18T05:27:12;42.28;;;28.48;;
41039;SDS011;48586;50.122;18.972;2022-08-18T05:30:16;44.00;;;26.88;;
41039;SDS011;48586;50.122;18.972;2022-08-18T05:33:17;40.28;;;26.75;;
41039;SDS011;48586;50.122;18.972;2022-08-18T05:36:23;38.65;;;26.77;;
41039;SDS011;48586;50.122;18.972;2022-08-18T05:39:39;36.60;;;27.17;;
41039;SDS011;48586;50.122;18.972;2022-08-18T05:42:52;46.13;;;27.67;;
41039;SDS011;48586;50.122;18.972;2022-08-18T05:45:58;44.88;;;29.60;;
41039;SDS011;48586;50.122;18.972;2022-08-18T05:49:04;41.97;;;28.25;;
41039;SDS011;48586;50.122;18.972;2022-08-18T05:52:08;43.90;;;28.48;;
41039;SDS011;48586;50.122;18.972;2022-08-18T05:55:16;43.70;;;26.88;;
41039;SDS011;48586;50.122;18.972;2022-08-18T05:58:42;39.22;;;25.80;;
41039;SDS011;48586;50.122;18.972;2022-08-18T06:01:49;35.72;;;25.70;;
41039;SDS011;48586;50.122;18.972;2022-08-18T06:04:58;31.95;;;24.80;;
41039;SDS011;48586;50.122;18.972;2022-08-18T06:08:06;39.95;;;24.92;;
41039;SDS011;48586;50.122;18.972;2022-08-18T06:11:16;37.65;;;23.67;;
41039;SDS011;48586;50.122;18.972;2022-08-18T06:14:18;36.88;;;24.95;;
41039;SDS011;48586;50.122;18.972;2022-08-18T06:17:35;35.33;;;23.65;;
41039;SDS011;48586;50.122;18.972;2022-08-18T06:21:15;36.72;;;23.48;;
41039;SDS011;48586;50.122;18.972;2022-08-18T06:24:33;35.60;;;22.88;;
41039;SDS011;48586;50.122;18.972;2022-08-18T06:27:39;40.00;;;22.63;;
41039;SDS011;48586;50.122;18.972;2022-08-18T06:30:52;34.63;;;22.77;;
41039;SDS011;48586;50.122;18.972;2022-08-18T06:34:02;39.92;;;22.52;;
41039;SDS011;48586;50.122;18.972;2022-08-18T06:37:17;28.77;;;20.50;;
41039;SDS011;48586;50.122;18.972;2022-08-18T06:40:27;34.53;;;20.23;;
41039;SDS011;48586;50.122;18.972;2022-08-18T06:43:30;33.30;;;19.77;;
41039;SDS011;48586;50.122;18.972;2022-08-18T06:46:39;31.35;;;19.70;;
41039;SDS011;48586;50.122;18.972;2022-08-18T06:49:47;26.13;;;18.58;;
41039;SDS011;48586;50.122;18.972;2022-08-18T06:52:55;27.60;;;19.25;;
41039;SDS011;48586;50.122;18.972;2022-08-18T06:56:14;29.85;;;19.55;;
41039;SDS011;48586;50.122;18.972;2022-08-18T06:59:23;23.63;;;17.20;;
41039;SDS011;48586;50.122;18.972;2022-08-18T07:02:36;26.30;;;17.42;;
41039;SDS011;48586;50.122;18.972;2022-08-18T07:05:58;27.45;;;17.00;;
41039;SDS011;48586;50.122;18.972;2022-08-18T07:09:19;29.08;;;17.20;;
41039;SDS011;48586;50.122;18.972;2022-08-18T07:12:24;26.15;;;17.38;;
41039;SDS011;48586;50.122;18.972;2022-08-18T07:15:28;25.15;;;15.95;;
41039;SDS011;48586;50.122;18.972;2022-08-18T07:18:31;21.67;;;15.93;;
41039;SDS011;48586;50.122;18.972;2022-08-18T07:21:35;23.75;;;16.70;;
41039;SDS011;48586;50.122;18.972;2022-08-18T07:24:41;20.17;;;14.88;;
41039;SDS011;48586;50.122;18.972;2022-08-18T07:27:46;22.23;;;14.52;;
41039;SDS011;48586;50.122;18.972;2022-08-18T07:30:49;24.48;;;14.43;;
41039;SDS011;48586;50.122;18.972;2022-08-18T07:33:52;24.00;;;14.80;;
41039;SDS011;48586;50.122;18.972;2022-08-18T07:37:00;21.67;;;13.50;;
41039;SDS011;48586;50.122;18.972;2022-08-18T07:40:09;21.00;;;14.85;;
41039;SDS011;48586;50.122;18.972;2022-08-18T07:43:21;22.40;;;14.90;;
41039;SDS011;48586;50.122;18.972;2022-08-18T07:46:30;20.60;;;14.20;;
41039;SDS011;48586;50.122;18.972;2022-08-18T07:49:37;23.48;;;13.90;;
41039;SDS011;48586;50.122;18.972;2022-08-18T07:52:44;22.85;;;13.57;;
41039;SDS011;48586;50.122;18.972;2022-08-18T07:55:52;17.50;;;13.35;;
41039;SDS011;48586;50.122;18.972;2022-08-18T07:59:00;23.63;;;12.52;;
41039;SDS011;48586;50.122;18.972;2022-08-18T08:02:13;27.10;;;12.57;;
41039;SDS011;48586;50.122;18.972;2022-08-18T08:05:27;18.42;;;12.18;;
41039;SDS011;48586;50.122;18.972;2022-08-18T08:08:43;20.35;;;12.15;;
41039;SDS011;48586;50.122;18.972;2022-08-18T08:11:52;20.80;;;11.98;;
41039;SDS011;48586;50.122;18.972;2022-08-18T08:15:00;22.75;;;12.18;;
41039;SDS011;48586;50.122;18.972;2022-08-18T08:18:10;20.05;;;12.50;;
41039;SDS011;48586;50.122;18.972;2022-08-18T08:21:15;18.05;;;13.23;;
41039;SDS011;48586;50.122;18.972;2022-08-18T08:24:24;17.88;;;12.25;;
41039;SDS011;48586;50.122;18.972;2022-08-18T08:27:33;19.17;;;12.82;;
41039;SDS011;48586;50.122;18.972;2022-08-18T08:30:51;22.33;;;12.10;;
41039;SDS011;48586;50.122;18.972;2022-08-18T08:34:06;18.33;;;11.10;;
41039;SDS011;48586;50.122;18.972;2022-08-18T08:37:13;18.27;;;11.65;;
41039;SDS011;48586;50.122;18.972;2022-08-18T08:40:22;20.73;;;12.32;;
41039;SDS011;48586;50.122;18.972;2022-08-18T08:43:29;19.55;;;11.68;;
41039;SDS011;48586;50.122;18.972;2022-08-18T08:46:37;20.75;;;11.60;;
41039;SDS011;48586;50.122;18.972;2022-08-18T08:49:47;24.55;;;12.98;;
41039;SDS011;48586;50.122;18.972;2022-08-18T08:52:56;23.73;;;11.85;;
41039;SDS011;48586;50.122;18.972;2022-08-18T08:56:07;18.02;;;11.60;;
41039;SDS011;48586;50.122;18.972;2022-08-18T08:59:15;18.00;;;11.43;;
41039;SDS011;48586;50.122;18.972;2022-08-18T09:05:33;13.80;;;10.52;;
41039;SDS011;48586;50.122;18.972;2022-08-18T09:08:45;19.92;;;11.35;;
41039;SDS011;48586;50.122;18.972;2022-08-18T09:12:10;18.83;;;11.20;;
41039;SDS011;48586;50.122;18.972;2022-08-18T09:15:27;16.60;;;10.85;;
41039;SDS011;48586;50.122;18.972;2022-08-18T09:18:50;17.83;;;11.00;;
41039;SDS011;48586;50.122;18.972;2022-08-18T09:22:09;17.65;;;11.25;;
41039;SDS011;48586;50.122;18.972;2022-08-18T09:25:29;15.23;;;10.70;;
41039;SDS011;48586;50.122;18.972;2022-08-18T09:28:51;13.55;;;10.38;;
41039;SDS011;48586;50.122;18.972;2022-08-18T09:35:52;21.17;;;11.07;;
41039;SDS011;48586;50.122;18.972;2022-08-18T09:39:20;19.17;;;10.63;;
41039;SDS011;48586;50.122;18.972;2022-08-18T09:42:45;20.60;;;10.45;;
41039;SDS011;48586;50.122;18.972;2022-08-18T09:45:54;17.55;;;9.98;;
41039;SDS011;48586;50.122;18.972;2022-08-18T09:52:45;14.75;;;9.85;;
41039;SDS011;48586;50.122;18.972;2022-08-18T09:55:55;16.17;;;10.07;;
41039;SDS011;48586;50.122;18.972;2022-08-18T09:58:58;17.58;;;9.57;;
41039;SDS011;48586;50.122;18.972;2022-08-18T10:02:04;14.45;;;9.20;;
41039;SDS011;48586;50.122;18.972;2022-08-18T10:05:25;16.60;;;9.30;;
41039;SDS011;48586;50.122;18.972;2022-08-18T10:08:38;15.38;;;9.52;;
41039;SDS011;48586;50.122;18.972;2022-08-18T10:12:13;19.95;;;9.57;;
41039;SDS011;48586;50.122;18.972;2022-08-18T10:15:25;18.58;;;9.32;;
41039;SDS011;48586;50.122;18.972;2022-08-18T10:22:04;15.68;;;8.70;;
41039;SDS011;48586;50.122;18.972;2022-08-18T10:25:08;13.18;;;8.13;;
41039;SDS011;48586;50.122;18.972;2022-08-18T10:38:57;11.95;;;7.38;;
41039;SDS011;48586;50.122;18.972;2022-08-18T10:42:02;13.77;;;6.60;;
41039;SDS011;48586;50.122;18.972;2022-08-18T10:45:08;11.95;;;7.22;;
41039;SDS011;48586;50.122;18.972;2022-08-18T10:48:16;11.88;;;6.28;;
41039;SDS011;48586;50.122;18.972;2022-08-18T10:51:24;23.42;;;8.32;;
41039;SDS011;48586;50.122;18.972;2022-08-18T10:54:34;13.63;;;6.88;;
41039;SDS011;48586;50.122;18.972;2022-08-18T10:57:53;12.27;;;6.70;;
41039;SDS011;48586;50.122;18.972;2022-08-18T11:01:11;15.55;;;7.38;;
41039;SDS011;48586;50.122;18.972;2022-08-18T11:04:23;12.23;;;6.57;;
41039;SDS011;48586;50.122;18.972;2022-08-18T11:07:30;19.67;;;8.02;;
41039;SDS011;48586;50.122;18.972;2022-08-18T11:10:34;16.30;;;7.72;;
41039;SDS011;48586;50.122;18.972;2022-08-18T11:13:49;12.63;;;7.00;;
41039;SDS011;48586;50.122;18.972;2022-08-18T11:17:02;12.75;;;6.60;;
41039;SDS011;48586;50.122;18.972;2022-08-18T11:20:15;13.40;;;6.03;;
41039;SDS011;48586;50.122;18.972;2022-08-18T11:23:22;16.10;;;6.68;;
41039;SDS011;48586;50.122;18.972;2022-08-18T11:26:28;14.07;;;6.20;;
41039;SDS011;48586;50.122;18.972;2022-08-18T11:29:31;8.00;;;5.88;;
41039;SDS011;48586;50.122;18.972;2022-08-18T11:32:35;14.05;;;7.25;;
41039;SDS011;48586;50.122;18.972;2022-08-18T11:35:43;21.60;;;6.90;;
41039;SDS011;48586;50.122;18.972;2022-08-18T11:38:53;11.70;;;6.22;;
41039;SDS011;48586;50.122;18.972;2022-08-18T11:41:56;11.02;;;6.28;;
41039;SDS011;48586;50.122;18.972;2022-08-18T11:45:04;16.50;;;7.00;;
41039;SDS011;48586;50.122;18.972;2022-08-18T11:48:18;13.00;;;6.00;;
41039;SDS011;48586;50.122;18.972;2022-08-18T11:51:25;10.32;;;6.13;;
41039;SDS011;48586;50.122;18.972;2022-08-18T11:54:35;9.85;;;5.90;;
41039;SDS011;48586;50.122;18.972;2022-08-18T11:57:42;14.55;;;5.47;;
41039;SDS011;48586;50.122;18.972;2022-08-18T12:00:54;12.48;;;5.40;;
41039;SDS011;48586;50.122;18.972;2022-08-18T12:03:59;10.65;;;5.82;;
41039;SDS011;48586;50.122;18.972;2022-08-18T12:07:11;9.85;;;5.53;;
41039;SDS011;48586;50.122;18.972;2022-08-18T12:10:19;14.23;;;5.93;;
41039;SDS011;48586;50.122;18.972;2022-08-18T12:13:24;11.90;;;6.22;;
41039;SDS011;48586;50.122;18.972;2022-08-18T12:16:30;11.10;;;6.13;;
41039;SDS011;48586;50.122;18.972;2022-08-18T12:19:36;14.27;;;5.40;;
41039;SDS011;48586;50.122;18.972;2022-08-18T12:22:40;10.20;;;6.03;;
41039;SDS011;48586;50.122;18.972;2022-08-18T12:25:45;15.27;;;6.40;;
41039;SDS011;48586;50.122;18.972;2022-08-18T12:28:48;8.32;;;5.05;;
41039;SDS011;48586;50.122;18.972;2022-08-18T12:31:50;10.30;;;5.68;;
41039;SDS011;48586;50.122;18.972;2022-08-18T12:34:54;10.55;;;6.13;;
41039;SDS011;48586;50.122;18.972;2022-08-18T12:37:57;9.60;;;5.45;;
41039;SDS011;48586;50.122;18.972;2022-08-18T12:41:01;8.90;;;5.60;;
41039;SDS011;48586;50.122;18.972;2022-08-18T12:44:04;10.23;;;5.10;;
41039;SDS011;48586;50.122;18.972;2022-08-18T12:47:08;11.03;;;5.13;;
41039;SDS011;48586;50.122;18.972;2022-08-18T12:50:12;12.65;;;5.35;;
41039;SDS011;48586;50.122;18.972;2022-08-18T12:53:14;12.65;;;5.53;;
41039;SDS011;48586;50.122;18.972;2022-08-18T12:56:20;12.13;;;5.00;;
41039;SDS011;48586;50.122;18.972;2022-08-18T12:59:24;10.52;;;5.55;;
41039;SDS011;48586;50.122;18.972;2022-08-18T13:02:26;7.95;;;5.55;;
41039;SDS011;48586;50.122;18.972;2022-08-18T13:05:28;11.43;;;5.47;;
41039;SDS011;48586;50.122;18.972;2022-08-18T13:08:31;9.63;;;5.40;;
41039;SDS011;48586;50.122;18.972;2022-08-18T13:11:34;7.35;;;6.22;;
41039;SDS011;48586;50.122;18.972;2022-08-18T13:14:36;10.90;;;6.35;;
41039;SDS011;48586;50.122;18.972;2022-08-18T13:17:38;9.82;;;6.03;;
41039;SDS011;48586;50.122;18.972;2022-08-18T13:20:41;12.90;;;6.72;;
41039;SDS011;48586;50.122;18.972;2022-08-18T13:23:43;10.98;;;6.80;;
41039;SDS011;48586;50.122;18.972;2022-08-18T13:26:46;11.75;;;7.63;;
41039;SDS011;48586;50.122;18.972;2022-08-18T13:29:49;20.75;;;10.70;;
41039;SDS011;48586;50.122;18.972;2022-08-18T13:32:51;8.73;;;6.75;;
41039;SDS011;48586;50.122;18.972;2022-08-18T13:35:55;17.13;;;8.23;;
41039;SDS011;48586;50.122;18.972;2022-08-18T13:38:57;22.50;;;8.85;;
41039;SDS011;48586;50.122;18.972;2022-08-18T13:42:02;16.97;;;7.80;;
41039;SDS011;48586;50.122;18.972;2022-08-18T13:45:04;18.17;;;7.72;;
41039;SDS011;48586;50.122;18.972;2022-08-18T13:48:07;13.48;;;7.38;;
41039;SDS011;48586;50.122;18.972;2022-08-18T13:51:10;14.70;;;7.50;;
41039;SDS011;48586;50.122;18.972;2022-08-18T13:54:19;18.67;;;8.07;;
41039;SDS011;48586;50.122;18.972;2022-08-18T13:57:24;14.98;;;7.45;;
41039;SDS011;48586;50.122;18.972;2022-08-18T14:00:26;19.60;;;7.83;;
41039;SDS011;48586;50.122;18.972;2022-08-18T14:03:28;12.50;;;7.45;;
41039;SDS011;48586;50.122;18.972;2022-08-18T14:06:31;14.30;;;7.50;;
41039;SDS011;48586;50.122;18.972;2022-08-18T14:09:33;14.73;;;7.65;;
41039;SDS011;48586;50.122;18.972;2022-08-18T14:12:38;13.18;;;7.57;;
41039;SDS011;48586;50.122;18.972;2022-08-18T14:15:41;9.43;;;6.57;;
41039;SDS011;48586;50.122;18.972;2022-08-18T14:18:46;17.05;;;7.35;;
41039;SDS011;48586;50.122;18.972;2022-08-18T14:22:08;10.43;;;7.32;;
41039;SDS011;48586;50.122;18.972;2022-08-18T14:25:39;12.60;;;6.95;;
41039;SDS011;48586;50.122;18.972;2022-08-18T14:29:01;13.63;;;6.75;;
41039;SDS011;48586;50.122;18.972;2022-08-18T14:32:04;11.40;;;7.00;;
41039;SDS011;48586;50.122;18.972;2022-08-18T14:35:08;13.40;;;8.90;;
41039;SDS011;48586;50.122;18.972;2022-08-18T14:38:13;18.15;;;8.55;;
41039;SDS011;48586;50.122;18.972;2022-08-18T14:41:17;17.50;;;8.02;;
41039;SDS011;48586;50.122;18.972;2022-08-18T14:44:22;12.60;;;7.70;;
41039;SDS011;48586;50.122;18.972;2022-08-18T14:50:28;13.80;;;7.40;;
41039;SDS011;48586;50.122;18.972;2022-08-18T14:53:31;11.13;;;6.85;;
41039;SDS011;48586;50.122;18.972;2022-08-18T14:56:36;15.95;;;7.20;;
41039;SDS011;48586;50.122;18.972;2022-08-18T14:59:41;16.02;;;7.18;;
41039;SDS011;48586;50.122;18.972;2022-08-18T15:02:44;12.40;;;7.95;;
41039;SDS011;48586;50.122;18.972;2022-08-18T15:05:49;11.90;;;7.10;;
41039;SDS011;48586;50.122;18.972;2022-08-18T15:08:52;15.65;;;7.10;;
41039;SDS011;48586;50.122;18.972;2022-08-18T15:11:55;9.98;;;6.75;;
41039;SDS011;48586;50.122;18.972;2022-08-18T15:15:00;14.75;;;6.95;;
41039;SDS011;48586;50.122;18.972;2022-08-18T15:18:02;11.60;;;6.55;;
41039;SDS011;48586;50.122;18.972;2022-08-18T15:21:06;17.60;;;7.07;;
41039;SDS011;48586;50.122;18.972;2022-08-18T15:24:26;9.50;;;6.60;;
41039;SDS011;48586;50.122;18.972;2022-08-18T15:27:46;9.43;;;5.90;;
41039;SDS011;48586;50.122;18.972;2022-08-18T15:30:50;10.23;;;6.60;;
41039;SDS011;48586;50.122;18.972;2022-08-18T15:33:53;11.18;;;5.75;;
41039;SDS011;48586;50.122;18.972;2022-08-18T15:36:56;16.90;;;6.20;;
41039;SDS011;48586;50.122;18.972;2022-08-18T15:39:59;10.65;;;5.88;;
41039;SDS011;48586;50.122;18.972;2022-08-18T15:43:11;17.95;;;6.32;;
41039;SDS011;48586;50.122;18.972;2022-08-18T15:46:15;10.80;;;6.28;;
41039;SDS011;48586;50.122;18.972;2022-08-18T15:49:18;15.45;;;6.25;;
41039;SDS011;48586;50.122;18.972;2022-08-18T15:52:21;8.45;;;5.90;;
41039;SDS011;48586;50.122;18.972;2022-08-18T15:55:25;11.57;;;6.75;;
41039;SDS011;48586;50.122;18.972;2022-08-18T15:58:29;7.53;;;6.25;;
41039;SDS011;48586;50.122;18.972;2022-08-18T16:01:33;15.68;;;6.43;;
41039;SDS011;48586;50.122;18.972;2022-08-18T16:04:37;10.02;;;6.55;;
41039;SDS011;48586;50.122;18.972;2022-08-18T16:07:40;10.40;;;6.27;;
41039;SDS011;48586;50.122;18.972;2022-08-18T16:10:43;12.30;;;6.15;;
41039;SDS011;48586;50.122;18.972;2022-08-18T16:13:46;7.00;;;5.47;;
41039;SDS011;48586;50.122;18.972;2022-08-18T16:16:51;14.57;;;5.77;;
41039;SDS011;48586;50.122;18.972;2022-08-18T16:19:53;9.13;;;5.78;;
41039;SDS011;48586;50.122;18.972;2022-08-18T16:22:56;8.93;;;6.10;;
41039;SDS011;48586;50.122;18.972;2022-08-18T16:25:59;15.10;;;6.53;;
41039;SDS011;48586;50.122;18.972;2022-08-18T16:29:01;13.32;;;7.65;;
41039;SDS011;48586;50.122;18.972;2022-08-18T16:32:06;12.27;;;6.75;;
41039;SDS011;48586;50.122;18.972;2022-08-18T16:35:08;13.25;;;6.47;;
41039;SDS011;48586;50.122;18.972;2022-08-18T16:38:10;14.20;;;6.97;;
41039;SDS011;48586;50.122;18.972;2022-08-18T16:41:14;17.40;;;6.72;;
41039;SDS011;48586;50.122;18.972;2022-08-18T16:44:16;13.30;;;6.25;;
41039;SDS011;48586;50.122;18.972;2022-08-18T16:47:20;9.80;;;6.70;;
41039;SDS011;48586;50.122;18.972;2022-08-18T16:50:22;15.30;;;6.93;;
41039;SDS011;48586;50.122;18.972;2022-08-18T16:53:24;14.07;;;6.35;;
41039;SDS011;48586;50.122;18.972;2022-08-18T16:56:29;12.57;;;6.60;;
41039;SDS011;48586;50.122;18.972;2022-08-18T16:59:34;11.02;;;6.28;;
41039;SDS011;48586;50.122;18.972;2022-08-18T17:02:52;13.73;;;6.70;;
41039;SDS011;48586;50.122;18.972;2022-08-18T17:06:13;18.30;;;7.70;;
41039;SDS011;48586;50.122;18.972;2022-08-18T17:09:16;10.05;;;6.25;;
41039;SDS011;48586;50.122;18.972;2022-08-18T17:12:20;10.45;;;7.15;;
41039;SDS011;48586;50.122;18.972;2022-08-18T17:15:22;17.05;;;7.30;;
41039;SDS011;48586;50.122;18.972;2022-08-18T17:18:26;12.85;;;7.80;;
41039;SDS011;48586;50.122;18.972;2022-08-18T17:21:29;15.43;;;7.03;;
41039;SDS011;48586;50.122;18.972;2022-08-18T17:24:33;8.98;;;6.93;;
41039;SDS011;48586;50.122;18.972;2022-08-18T17:27:34;14.27;;;7.63;;
41039;SDS011;48586;50.122;18.972;2022-08-18T17:30:41;9.55;;;7.30;;
41039;SDS011;48586;50.122;18.972;2022-08-18T17:33:49;13.82;;;7.47;;
41039;SDS011;48586;50.122;18.972;2022-08-18T17:36:55;14.23;;;7.93;;
41039;SDS011;48586;50.122;18.972;2022-08-18T17:40:00;15.15;;;7.70;;
41039;SDS011;48586;50.122;18.972;2022-08-18T17:43:08;12.82;;;8.90;;
41039;SDS011;48586;50.122;18.972;2022-08-18T17:46:16;15.15;;;8.48;;
41039;SDS011;48586;50.122;18.972;2022-08-18T17:49:29;12.32;;;8.40;;
41039;SDS011;48586;50.122;18.972;2022-08-18T17:52:48;19.90;;;8.30;;
41039;SDS011;48586;50.122;18.972;2022-08-18T17:55:57;15.85;;;8.93;;
41039;SDS011;48586;50.122;18.972;2022-08-18T17:59:06;18.45;;;8.95;;
41039;SDS011;48586;50.122;18.972;2022-08-18T18:02:13;14.02;;;8.27;;
41039;SDS011;48586;50.122;18.972;2022-08-18T18:08:21;13.07;;;9.00;;
41039;SDS011;48586;50.122;18.972;2022-08-18T18:11:55;14.17;;;9.87;;
41039;SDS011;48586;50.122;18.972;2022-08-18T18:14:59;16.10;;;9.80;;
41039;SDS011;48586;50.122;18.972;2022-08-18T18:18:16;18.42;;;9.07;;
41039;SDS011;48586;50.122;18.972;2022-08-18T18:21:23;15.38;;;8.95;;
41039;SDS011;48586;50.122;18.972;2022-08-18T18:24:28;19.45;;;9.52;;
41039;SDS011;48586;50.122;18.972;2022-08-18T18:27:38;16.98;;;9.00;;
41039;SDS011;48586;50.122;18.972;2022-08-18T18:30:41;15.05;;;9.60;;
41039;SDS011;48586;50.122;18.972;2022-08-18T18:33:43;17.55;;;10.88;;
41039;SDS011;48586;50.122;18.972;2022-08-18T18:36:49;20.50;;;10.32;;
41039;SDS011;48586;50.122;18.972;2022-08-18T18:39:55;20.77;;;9.73;;
41039;SDS011;48586;50.122;18.972;2022-08-18T18:46:25;21.05;;;10.57;;